createdAt,value
2023-12-11T00:00:32.072Z,56.14
2023-12-11T00:01:32.128Z,57.30
2023-12-11T00:02:32.055Z,56.63
2023-12-11T00:03:32.158Z,56.97
2023-12-11T00:04:32.071Z,56.99
2023-12-11T00:05:32.133Z,57.52
2023-12-11T00:06:32.131Z,55.80
2023-12-11T00:07:32.269Z,56.01
2023-12-11T00:08:32.075Z,57.54
2023-12-11T00:09:32.094Z,58.71
2023-12-11T00:10:32.080Z,58.85
2023-12-11T00:11:32.089Z,57.29
2023-12-11T00:12:32.141Z,57.03
2023-12-11T00:13:32.072Z,57.62
2023-12-11T00:14:32.115Z,57.35
2023-12-11T00:15:32.120Z,55.05
2023-12-11T00:16:32.082Z,58.28
2023-12-11T00:17:32.477Z,57.54
2023-12-11T00:18:32.213Z,54.84
2023-12-11T00:19:32.100Z,57.49
2023-12-11T00:20:32.097Z,57.70
2023-12-11T00:21:32.127Z,56.43
2023-12-11T00:22:32.092Z,56.64
2023-12-11T00:23:32.093Z,57.14
2023-12-11T00:24:32.094Z,57.17
2023-12-11T00:25:32.129Z,56.62
2023-12-11T00:26:32.107Z,54.65
2023-12-11T00:27:32.329Z,54.56
2023-12-11T00:28:32.152Z,56.11
2023-12-11T00:29:32.110Z,56.37
2023-12-11T00:30:32.107Z,55.74
2023-12-11T00:31:32.126Z,57.61
2023-12-11T00:32:32.107Z,55.62
2023-12-11T00:33:32.175Z,57.01
2023-12-11T00:34:32.143Z,55.75
2023-12-11T00:35:32.125Z,58.26
2023-12-11T00:36:32.115Z,57.28
2023-12-11T00:37:32.318Z,55.03
2023-12-11T00:38:32.099Z,56.49
2023-12-11T00:39:32.148Z,56.58
2023-12-11T00:40:32.088Z,57.84
2023-12-11T00:41:32.131Z,57.80
2023-12-11T00:42:32.162Z,57.11
2023-12-11T00:43:44.398Z,56.85
2023-12-11T00:44:33.136Z,57.03
2023-12-11T00:45:32.146Z,57.07
2023-12-11T00:46:32.152Z,58.09
2023-12-11T00:47:32.410Z,57.96
2023-12-11T00:48:32.186Z,59.12
2023-12-11T00:49:32.202Z,57.86
2023-12-11T00:50:32.175Z,55.55
2023-12-11T00:51:32.207Z,56.80
2023-12-11T00:52:32.147Z,57.86
2023-12-11T00:53:32.142Z,56.17
2023-12-11T00:54:32.166Z,56.56
2023-12-11T00:55:32.133Z,56.94
2023-12-11T00:56:32.122Z,57.70
2023-12-11T00:57:32.368Z,55.51
2023-12-11T00:58:32.154Z,56.27
2023-12-11T00:59:32.174Z,57.12
2023-12-11T01:00:32.139Z,56.44
2023-12-11T01:01:32.236Z,54.99
2023-12-11T01:02:32.136Z,58.68
2023-12-11T01:03:32.165Z,54.58
2023-12-11T01:04:32.279Z,56.04
2023-12-11T01:05:32.183Z,56.23
2023-12-11T01:06:32.173Z,56.93
2023-12-11T01:07:32.370Z,57.91
2023-12-11T01:08:32.141Z,54.91
2023-12-11T01:09:32.156Z,56.95
2023-12-11T01:10:32.148Z,56.73
2023-12-11T01:11:32.147Z,55.44
2023-12-11T01:12:32.172Z,55.57
2023-12-11T01:13:32.181Z,54.48
2023-12-11T01:14:32.200Z,55.32
2023-12-11T01:15:32.204Z,55.00
2023-12-11T01:16:32.192Z,54.66
2023-12-11T01:17:38.911Z,55.44
2023-12-11T01:18:33.374Z,55.52
2023-12-11T01:19:32.339Z,55.71
2023-12-11T01:20:32.216Z,56.25
2023-12-11T01:21:32.257Z,56.30
2023-12-11T01:22:32.241Z,56.93
2023-12-11T01:23:32.198Z,55.58
2023-12-11T01:24:32.264Z,55.98
2023-12-11T01:25:32.211Z,56.89
2023-12-11T01:26:32.241Z,54.04
2023-12-11T01:27:32.860Z,56.32
2023-12-11T01:28:32.240Z,55.65
2023-12-11T01:29:32.215Z,55.35
2023-12-11T01:30:32.264Z,55.03
2023-12-11T01:31:32.216Z,57.37
2023-12-11T01:32:32.282Z,56.82
2023-12-11T01:33:32.330Z,56.38
2023-12-11T01:34:32.349Z,56.86
2023-12-11T01:35:32.232Z,54.03
2023-12-11T01:36:32.277Z,56.30
2023-12-11T01:37:32.595Z,55.97
2023-12-11T01:38:32.273Z,57.59
2023-12-11T01:39:32.252Z,55.69
2023-12-11T01:40:32.244Z,58.61
2023-12-11T01:41:32.238Z,55.10
2023-12-11T01:42:32.273Z,54.62
2023-12-11T01:43:32.340Z,56.92
2023-12-11T01:44:32.305Z,55.73
2023-12-11T01:45:32.343Z,55.80
2023-12-11T01:46:32.329Z,54.93
2023-12-11T01:47:32.710Z,57.71
2023-12-11T01:48:32.516Z,55.01
2023-12-11T01:49:32.465Z,55.47
2023-12-11T01:50:32.451Z,57.79
2023-12-11T01:51:32.525Z,57.00
2023-12-11T01:52:32.481Z,56.19
2023-12-11T01:53:32.473Z,56.76
2023-12-11T01:54:32.564Z,56.27
2023-12-11T01:55:32.538Z,53.76
2023-12-11T01:56:32.672Z,54.65
2023-12-11T01:57:32.860Z,55.07
2023-12-11T01:58:32.645Z,54.46
2023-12-11T01:59:32.651Z,54.99
2023-12-11T02:00:32.711Z,57.31
2023-12-11T02:01:32.780Z,56.59
2023-12-11T02:02:32.731Z,54.82
2023-12-11T02:03:32.824Z,54.17
2023-12-11T02:04:32.958Z,54.46
2023-12-11T02:05:32.859Z,54.58
2023-12-11T02:06:32.833Z,53.41
2023-12-11T02:07:32.844Z,55.21
2023-12-11T02:08:32.883Z,55.34
2023-12-11T02:09:32.928Z,56.47
2023-12-11T02:10:32.988Z,54.30
2023-12-11T02:11:32.956Z,53.92
2023-12-11T02:12:33.009Z,54.09
2023-12-11T02:13:33.018Z,53.54
2023-12-11T02:14:33.039Z,56.40
2023-12-11T02:15:33.097Z,55.94
2023-12-11T02:16:33.130Z,55.03
2023-12-11T02:17:33.363Z,52.70
2023-12-11T02:18:33.367Z,58.09
2023-12-11T02:19:33.365Z,55.10
2023-12-11T02:20:33.219Z,53.54
2023-12-11T02:21:33.312Z,56.36
2023-12-11T02:22:33.296Z,54.24
2023-12-11T02:23:33.293Z,56.89
2023-12-11T02:24:33.402Z,55.18
2023-12-11T02:25:33.418Z,53.24
2023-12-11T02:26:33.440Z,56.17
2023-12-11T02:27:33.688Z,56.14
2023-12-11T02:28:33.482Z,54.67
2023-12-11T02:29:33.513Z,54.46
2023-12-11T02:30:33.573Z,55.97
2023-12-11T02:31:33.604Z,53.58
2023-12-11T02:32:33.665Z,55.43
2023-12-11T02:33:33.836Z,54.27
2023-12-11T02:34:33.916Z,56.14
2023-12-11T02:35:33.730Z,56.78
2023-12-11T02:36:33.803Z,54.71
2023-12-11T02:37:33.778Z,55.25
2023-12-11T02:38:33.841Z,54.03
2023-12-11T02:39:33.930Z,55.73
2023-12-11T02:40:33.897Z,56.26
2023-12-11T02:41:33.962Z,56.83
2023-12-11T02:42:33.988Z,53.84
2023-12-11T02:43:34.050Z,52.85
2023-12-11T02:44:34.065Z,54.13
2023-12-11T02:45:34.091Z,53.82
2023-12-11T02:46:34.100Z,55.17
2023-12-11T02:47:34.338Z,53.54
2023-12-11T02:48:34.314Z,54.23
2023-12-11T02:49:34.261Z,55.54
2023-12-11T02:50:34.272Z,54.00
2023-12-11T02:51:34.353Z,56.29
2023-12-11T02:52:34.274Z,56.69
2023-12-11T02:53:34.340Z,54.02
2023-12-11T02:55:17.070Z,50.00
2023-12-11T02:56:16.996Z,50.00
2023-12-11T02:57:17.011Z,50.00
2023-12-11T02:58:17.111Z,50.00
2023-12-11T02:59:16.984Z,50.00
2023-12-11T03:00:17.047Z,52.57
2023-12-11T03:01:17.144Z,53.54
2023-12-11T03:02:16.994Z,54.02
2023-12-11T03:03:17.035Z,52.31
2023-12-11T03:04:17.084Z,51.91
2023-12-11T03:05:17.010Z,52.52
2023-12-11T03:06:17.028Z,50.00
2023-12-11T03:07:17.081Z,52.64
2023-12-11T03:08:16.987Z,54.91
2023-12-11T03:09:17.015Z,56.70
2023-12-11T03:10:17.084Z,54.25
2023-12-11T03:11:17.043Z,54.05
2023-12-11T03:12:17.013Z,58.32
2023-12-11T03:13:17.068Z,52.57
2023-12-11T03:14:17.017Z,53.05
2023-12-11T03:15:17.034Z,53.26
2023-12-11T03:16:17.171Z,53.79
2023-12-11T03:17:17.052Z,54.77
2023-12-11T03:18:17.081Z,54.42
2023-12-11T03:19:17.098Z,54.16
2023-12-11T03:20:17.048Z,53.33
2023-12-11T03:21:17.075Z,55.35
2023-12-11T03:22:17.198Z,54.61
2023-12-11T03:23:17.050Z,54.53
2023-12-11T03:24:17.056Z,55.79
2023-12-11T03:25:17.126Z,56.41
2023-12-11T03:26:17.073Z,51.53
2023-12-11T03:27:17.039Z,52.00
2023-12-11T03:28:17.099Z,54.67
2023-12-11T03:29:17.069Z,53.84
2023-12-11T03:30:17.100Z,51.76
2023-12-11T03:31:17.201Z,56.02
2023-12-11T03:32:17.235Z,53.90
2023-12-11T03:33:17.248Z,56.83
2023-12-11T03:34:17.351Z,53.04
2023-12-11T03:35:17.320Z,54.89
2023-12-11T03:36:17.375Z,52.30
2023-12-11T03:37:17.384Z,53.46
2023-12-11T03:38:17.452Z,50.68
2023-12-11T03:39:17.457Z,53.10
2023-12-11T03:40:17.600Z,54.28
2023-12-11T03:41:17.548Z,57.26
2023-12-11T03:42:17.607Z,53.95
2023-12-11T03:43:17.743Z,50.18
2023-12-11T03:44:17.683Z,51.95
2023-12-11T03:45:17.765Z,50.31
2023-12-11T03:46:17.831Z,56.19
2023-12-11T03:47:17.866Z,55.72
2023-12-11T03:48:17.940Z,50.31
2023-12-11T03:49:18.088Z,53.39
2023-12-11T03:50:17.987Z,52.89
2023-12-11T03:51:18.034Z,53.19
2023-12-11T03:52:18.100Z,54.10
2023-12-11T03:53:18.121Z,54.36
2023-12-11T03:54:18.146Z,52.84
2023-12-11T03:55:18.227Z,52.00
2023-12-11T03:56:18.226Z,56.43
2023-12-11T03:57:18.287Z,53.14
2023-12-11T03:58:18.347Z,56.73
2023-12-11T03:59:18.364Z,54.56
2023-12-11T04:00:18.394Z,55.39
2023-12-11T04:01:18.572Z,54.75
2023-12-11T04:02:18.574Z,56.04
2023-12-11T04:03:18.541Z,52.47
2023-12-11T04:04:18.650Z,51.83
2023-12-11T04:05:18.619Z,52.40
2023-12-11T04:06:18.775Z,58.05
2023-12-11T04:07:18.724Z,55.88
2023-12-11T04:08:18.772Z,54.56
2023-12-11T04:09:18.801Z,56.35
2023-12-11T04:10:18.873Z,58.41
2023-12-11T04:11:18.908Z,53.62
2023-12-11T04:12:18.957Z,54.26
2023-12-11T04:13:18.964Z,54.10
2023-12-11T04:14:19.021Z,53.54
2023-12-11T04:15:19.076Z,54.57
2023-12-11T04:16:19.145Z,54.84
2023-12-11T04:17:19.151Z,55.61
2023-12-11T04:18:19.257Z,53.46
2023-12-11T04:19:19.388Z,55.51
2023-12-11T04:20:19.296Z,54.39
2023-12-11T04:21:19.328Z,54.50
2023-12-11T04:22:19.414Z,54.70
2023-12-11T04:23:19.464Z,54.01
2023-12-11T04:24:19.480Z,56.15
2023-12-11T04:25:19.529Z,55.85
2023-12-11T04:26:19.542Z,57.60
2023-12-11T04:27:19.542Z,58.65
2023-12-11T04:28:19.659Z,51.78
2023-12-11T04:29:19.662Z,60.23
2023-12-11T04:30:19.698Z,53.00
2023-12-11T04:31:26.915Z,50.00
2023-12-11T04:32:26.961Z,50.00
2023-12-11T04:33:26.969Z,50.00
2023-12-11T04:34:26.910Z,50.00
2023-12-11T04:35:26.887Z,50.00
2023-12-11T04:36:26.913Z,50.00
2023-12-11T04:37:27.095Z,50.00
2023-12-11T04:38:26.953Z,52.56
2023-12-11T04:39:26.912Z,53.90
2023-12-11T04:40:26.924Z,55.57
2023-12-11T04:41:26.898Z,54.53
2023-12-11T04:42:26.910Z,55.72
2023-12-11T04:43:29.916Z,54.29
2023-12-11T04:44:26.934Z,54.38
2023-12-11T04:45:26.934Z,53.42
2023-12-11T04:46:26.924Z,54.78
2023-12-11T04:47:27.060Z,56.95
2023-12-11T04:48:27.003Z,54.73
2023-12-11T04:49:27.018Z,60.45
2023-12-11T04:50:26.943Z,59.60
2023-12-11T04:51:26.933Z,56.69
2023-12-11T04:52:26.952Z,56.71
2023-12-11T04:53:26.943Z,52.26
2023-12-11T04:54:26.927Z,54.64
2023-12-11T04:55:26.999Z,55.05
2023-12-11T04:56:26.942Z,52.93
2023-12-11T04:57:26.959Z,54.55
2023-12-11T04:58:26.989Z,55.34
2023-12-11T04:59:26.987Z,52.74
2023-12-11T05:00:27.020Z,53.64
2023-12-11T05:01:27.442Z,52.98
2023-12-11T05:02:27.151Z,53.05
2023-12-11T05:03:27.202Z,51.29
2023-12-11T05:04:27.243Z,53.47
2023-12-11T05:05:27.311Z,57.62
2023-12-11T05:06:27.315Z,52.55
2023-12-11T05:07:27.469Z,52.78
2023-12-11T05:08:30.307Z,51.10
2023-12-11T05:09:27.454Z,51.47
2023-12-11T05:10:27.470Z,53.53
2023-12-11T05:11:27.459Z,50.43
2023-12-11T05:12:27.463Z,52.41
2023-12-11T05:13:27.419Z,52.91
2023-12-11T05:14:27.454Z,56.72
2023-12-11T05:15:27.438Z,50.16
2023-12-11T05:16:28.077Z,51.22
2023-12-11T05:17:27.624Z,56.16
2023-12-11T05:18:27.450Z,55.00
2023-12-11T05:19:27.524Z,55.85
2023-12-11T05:20:27.457Z,54.82
2023-12-11T05:21:27.436Z,50.59
2023-12-11T05:22:27.482Z,57.50
2023-12-11T05:23:27.458Z,52.51
2023-12-11T05:24:27.481Z,58.16
2023-12-11T05:25:27.461Z,54.45
2023-12-11T05:26:27.493Z,50.00
2023-12-11T05:27:27.736Z,52.56
2023-12-11T05:28:27.492Z,53.50
2023-12-11T05:29:27.450Z,51.71
2023-12-11T05:30:27.449Z,50.62
2023-12-11T05:31:27.468Z,57.51
2023-12-11T05:32:27.595Z,56.88
2023-12-11T05:33:27.550Z,62.23
2023-12-11T05:34:27.549Z,58.07
2023-12-11T05:35:27.481Z,59.59
2023-12-11T05:36:27.512Z,57.76
2023-12-11T05:37:28.244Z,51.88
2023-12-11T05:38:27.459Z,56.81
2023-12-11T05:39:27.488Z,59.97
2023-12-11T05:40:27.579Z,55.81
2023-12-11T05:41:27.481Z,53.38
2023-12-11T05:42:27.553Z,51.49
2023-12-11T05:43:27.641Z,54.31
2023-12-11T05:44:27.676Z,59.98
2023-12-11T05:45:27.802Z,58.69
2023-12-11T05:46:27.816Z,57.91
2023-12-11T05:47:28.267Z,54.94
2023-12-11T05:48:28.034Z,54.43
2023-12-11T05:49:28.149Z,55.45
2023-12-11T05:50:28.123Z,62.38
2023-12-11T05:51:28.162Z,57.99
2023-12-11T05:52:28.264Z,58.62
2023-12-11T05:53:28.346Z,59.87
2023-12-11T05:54:28.408Z,51.84
2023-12-11T05:55:28.488Z,57.83
2023-12-11T05:56:28.595Z,59.70
2023-12-11T05:57:28.817Z,58.68
2023-12-11T05:58:28.730Z,52.71
2023-12-11T05:59:28.724Z,52.36
2023-12-11T06:00:28.823Z,59.33
2023-12-11T06:01:28.963Z,55.28
2023-12-11T06:02:28.981Z,56.60
2023-12-11T06:03:29.031Z,56.19
2023-12-11T06:04:29.069Z,57.71
2023-12-11T06:05:29.191Z,57.27
2023-12-11T06:06:31.725Z,59.81
2023-12-11T06:07:29.499Z,60.11
2023-12-11T06:08:29.213Z,57.72
2023-12-11T06:09:29.210Z,57.78
2023-12-11T06:10:29.222Z,57.14
2023-12-11T06:11:29.236Z,56.44
2023-12-11T06:12:29.232Z,52.10
2023-12-11T06:13:29.244Z,56.10
2023-12-11T06:14:29.252Z,54.98
2023-12-11T06:15:29.223Z,51.18
2023-12-11T06:16:29.225Z,55.06
2023-12-11T06:17:29.572Z,61.43
2023-12-11T06:18:29.276Z,59.10
2023-12-11T06:19:29.297Z,57.42
2023-12-11T06:20:29.255Z,62.68
2023-12-11T06:21:29.246Z,55.48
2023-12-11T06:22:29.234Z,58.32
2023-12-11T06:23:29.258Z,55.47
2023-12-11T06:24:29.246Z,58.69
2023-12-11T06:25:29.244Z,61.79
2023-12-11T06:26:29.278Z,51.48
2023-12-11T06:27:29.627Z,60.43
2023-12-11T06:28:29.337Z,59.57
2023-12-11T06:29:29.250Z,50.76
2023-12-11T06:30:29.278Z,54.08
2023-12-11T06:31:29.272Z,56.99
2023-12-11T06:32:29.326Z,56.35
2023-12-11T06:33:29.330Z,58.47
2023-12-11T06:34:29.330Z,57.03
2023-12-11T06:35:29.327Z,58.92
2023-12-11T06:36:29.327Z,58.31
2023-12-11T06:37:29.530Z,62.77
2023-12-11T06:38:29.269Z,63.77
2023-12-11T06:39:29.313Z,63.83
2023-12-11T06:40:29.273Z,61.87
2023-12-11T06:41:29.305Z,59.98
2023-12-11T06:42:29.260Z,59.75
2023-12-11T06:43:29.301Z,61.66
2023-12-11T06:44:29.309Z,59.44
2023-12-11T06:45:33.046Z,63.91
2023-12-11T06:46:30.879Z,64.19
2023-12-11T06:47:29.511Z,65.23
2023-12-11T06:48:29.359Z,68.36
2023-12-11T06:49:29.476Z,71.92
2023-12-11T06:50:29.703Z,75.69
2023-12-11T06:51:29.350Z,79.73
2023-12-11T06:52:29.431Z,79.35
2023-12-11T06:53:29.424Z,78.10
2023-12-11T06:54:29.444Z,76.54
2023-12-11T06:55:29.641Z,77.02
2023-12-11T06:56:29.506Z,77.04
2023-12-11T06:57:29.778Z,77.20
2023-12-11T06:58:29.551Z,75.25
2023-12-11T06:59:29.678Z,76.62
2023-12-11T07:00:31.868Z,72.30
2023-12-11T07:01:29.854Z,70.96
2023-12-11T07:02:30.717Z,71.33
2023-12-11T07:03:29.942Z,72.41
2023-12-11T07:04:30.207Z,72.66
2023-12-11T07:05:30.126Z,70.88
2023-12-11T07:06:30.014Z,72.46
2023-12-11T07:07:30.266Z,74.23
2023-12-11T07:08:30.074Z,72.76
2023-12-11T07:09:30.092Z,73.04
2023-12-11T07:10:30.130Z,75.31
2023-12-11T07:11:30.147Z,74.70
2023-12-11T07:12:30.741Z,74.43
2023-12-11T07:13:30.328Z,74.28
2023-12-11T07:15:37.076Z,50.00
2023-12-11T07:16:36.852Z,50.00
2023-12-11T07:17:37.374Z,50.00
2023-12-11T07:18:36.960Z,50.00
2023-12-11T07:19:36.920Z,50.00
2023-12-11T07:20:37.012Z,54.91
2023-12-11T07:21:36.912Z,58.36
2023-12-11T07:22:36.939Z,55.14
2023-12-11T07:23:36.880Z,55.78
2023-12-11T07:24:36.922Z,59.18
2023-12-11T07:25:37.114Z,57.19
2023-12-11T07:26:36.938Z,56.50
2023-12-11T07:27:36.969Z,58.27
2023-12-11T07:28:36.876Z,56.60
2023-12-11T07:29:36.881Z,58.94
2023-12-11T07:30:37.472Z,62.06
2023-12-11T07:31:36.918Z,60.21
2023-12-11T07:32:36.919Z,58.77
2023-12-11T07:33:37.161Z,61.31
2023-12-11T07:34:37.075Z,59.34
2023-12-11T07:35:37.473Z,60.54
2023-12-11T07:36:37.230Z,67.25
2023-12-11T07:37:37.150Z,63.73
2023-12-11T07:38:37.200Z,59.39
2023-12-11T07:39:37.263Z,69.41
2023-12-11T07:40:37.550Z,69.52
2023-12-11T07:41:38.621Z,74.07
2023-12-11T07:42:37.337Z,75.39
2023-12-11T07:43:37.500Z,76.66
2023-12-11T07:44:37.398Z,70.71
2023-12-11T07:45:37.533Z,68.94
2023-12-11T07:46:39.376Z,64.91
2023-12-11T07:47:37.581Z,67.09
2023-12-11T07:48:37.643Z,59.34
2023-12-11T07:49:37.452Z,63.15
2023-12-11T07:50:37.471Z,58.40
2023-12-11T07:51:37.487Z,53.88
2023-12-11T07:52:37.445Z,56.58
2023-12-11T07:53:37.461Z,52.38
2023-12-11T07:54:37.496Z,51.91
2023-12-11T07:55:37.652Z,50.69
2023-12-11T07:56:37.483Z,53.69
2023-12-11T07:57:37.498Z,55.48
2023-12-11T07:58:37.420Z,51.88
2023-12-11T07:59:37.498Z,55.15
2023-12-11T08:00:37.531Z,54.26
2023-12-11T08:01:37.555Z,52.92
2023-12-11T08:02:37.458Z,54.51
2023-12-11T08:03:37.607Z,50.68
2023-12-11T08:04:37.594Z,52.65
2023-12-11T08:05:37.548Z,51.76
2023-12-11T08:06:37.592Z,53.83
2023-12-11T08:07:37.554Z,55.12
2023-12-11T08:08:38.482Z,55.20
2023-12-11T08:09:37.558Z,55.34
2023-12-11T08:10:37.551Z,54.72
2023-12-11T08:11:37.789Z,54.92
2023-12-11T08:12:37.498Z,53.61
2023-12-11T08:13:37.501Z,56.80
2023-12-11T08:14:39.544Z,52.22
2023-12-11T08:15:37.528Z,54.90
2023-12-11T08:16:37.561Z,54.31
2023-12-11T08:17:37.594Z,52.80
2023-12-11T08:18:37.592Z,54.49
2023-12-11T08:19:37.653Z,54.99
2023-12-11T08:20:37.573Z,55.16
2023-12-11T08:21:37.527Z,56.24
2023-12-11T08:22:39.897Z,55.15
2023-12-11T08:23:42.408Z,54.94
2023-12-11T08:24:43.017Z,55.05
2023-12-11T08:25:42.025Z,55.10
2023-12-11T08:26:38.876Z,55.26
2023-12-11T08:27:41.944Z,56.06
2023-12-11T08:28:38.167Z,55.21
2023-12-11T08:29:42.273Z,56.20
2023-12-11T08:30:40.203Z,55.25
2023-12-11T08:31:37.629Z,55.27
2023-12-11T08:32:37.578Z,56.23
2023-12-11T08:33:39.562Z,56.85
2023-12-11T08:34:37.745Z,55.13
2023-12-11T08:35:37.608Z,56.51
2023-12-11T08:36:38.187Z,59.15
2023-12-11T08:37:39.077Z,62.12
2023-12-11T08:38:42.571Z,66.43
2023-12-11T08:39:37.719Z,55.45
2023-12-11T08:40:37.682Z,56.04
2023-12-11T08:41:38.024Z,56.45
2023-12-11T08:42:40.895Z,56.23
2023-12-11T08:43:37.688Z,55.00
2023-12-11T08:44:37.655Z,51.89
2023-12-11T08:45:37.657Z,53.22
2023-12-11T08:46:38.039Z,50.12
2023-12-11T08:47:39.290Z,50.08
2023-12-11T08:48:38.143Z,56.57
2023-12-11T08:49:38.077Z,57.87
2023-12-11T08:50:39.488Z,50.00
2023-12-11T08:51:38.083Z,51.17
2023-12-11T08:52:38.083Z,51.38
2023-12-11T08:53:38.534Z,55.54
2023-12-11T08:54:38.246Z,52.09
2023-12-11T08:55:38.200Z,53.15
2023-12-11T08:56:38.651Z,50.39
2023-12-11T08:57:38.303Z,52.52
2023-12-11T08:58:38.301Z,51.38
2023-12-11T08:59:38.397Z,52.74
2023-12-11T09:00:38.584Z,53.99
2023-12-11T09:01:38.610Z,51.42
2023-12-11T09:02:38.432Z,50.84
2023-12-11T09:03:38.568Z,51.64
2023-12-11T09:04:38.669Z,52.34
2023-12-11T09:05:38.546Z,52.76
2023-12-11T09:06:38.638Z,53.57
2023-12-11T09:07:39.033Z,52.15
2023-12-11T09:08:38.628Z,52.89
2023-12-11T09:09:38.994Z,50.61
2023-12-11T09:10:38.704Z,52.27
2023-12-11T09:11:38.698Z,50.58
2023-12-11T09:12:39.091Z,51.56
2023-12-11T09:13:38.820Z,52.77
2023-12-11T09:14:38.828Z,52.45
2023-12-11T09:15:38.847Z,52.08
2023-12-11T09:16:39.043Z,53.51
2023-12-11T09:17:38.934Z,51.26
2023-12-11T09:18:39.135Z,51.75
2023-12-11T09:19:44.758Z,50.00
2023-12-11T09:20:40.094Z,50.11
2023-12-11T09:21:39.019Z,50.22
2023-12-11T09:22:38.970Z,50.41
2023-12-11T09:23:39.012Z,51.19
2023-12-11T09:24:39.075Z,49.07
2023-12-11T09:25:39.505Z,51.94
2023-12-11T09:26:39.024Z,55.39
2023-12-11T09:27:39.074Z,65.24
2023-12-11T09:28:48.233Z,64.80
2023-12-11T09:29:40.008Z,65.08
2023-12-11T09:30:39.110Z,65.98
2023-12-11T09:31:39.006Z,66.92
2023-12-11T09:32:39.183Z,68.21
2023-12-11T09:33:39.147Z,73.25
2023-12-11T09:34:39.229Z,72.28
2023-12-11T09:35:39.087Z,74.56
2023-12-11T09:36:39.097Z,73.62
2023-12-11T09:37:39.001Z,75.75
2023-12-11T09:38:39.029Z,72.38
2023-12-11T09:39:39.120Z,73.16
2023-12-11T09:40:39.017Z,71.38
2023-12-11T09:41:39.019Z,70.37
2023-12-11T09:42:39.036Z,70.18
2023-12-11T09:43:39.173Z,66.83
2023-12-11T09:44:39.614Z,66.87
2023-12-11T09:45:39.186Z,64.41
2023-12-11T09:46:39.218Z,64.33
2023-12-11T09:47:39.289Z,62.76
2023-12-11T09:48:41.238Z,63.07
2023-12-11T09:49:39.849Z,62.03
2023-12-11T09:50:39.491Z,63.38
2023-12-11T09:51:39.319Z,58.73
2023-12-11T09:52:39.295Z,55.05
2023-12-11T09:53:39.313Z,55.63
2023-12-11T09:54:39.395Z,59.72
2023-12-11T09:55:39.361Z,52.18
2023-12-11T09:56:39.479Z,58.19
2023-12-11T09:57:39.621Z,56.38
2023-12-11T09:58:39.600Z,63.97
2023-12-11T09:59:39.647Z,59.75
2023-12-11T10:00:39.889Z,53.23
2023-12-11T10:01:39.886Z,55.15
2023-12-11T10:02:40.095Z,57.15
2023-12-11T10:03:39.996Z,55.21
2023-12-11T10:04:40.064Z,62.83
2023-12-11T10:05:40.153Z,56.14
2023-12-11T10:06:40.214Z,56.59
2023-12-11T10:07:40.594Z,56.34
2023-12-11T10:08:40.336Z,55.38
2023-12-11T10:09:40.565Z,57.16
2023-12-11T10:10:40.438Z,55.93
2023-12-11T10:11:40.647Z,61.04
2023-12-11T10:12:41.591Z,59.62
2023-12-11T10:13:41.548Z,55.16
2023-12-11T10:14:41.569Z,53.22
2023-12-11T10:15:40.897Z,54.29
2023-12-11T10:16:40.792Z,54.38
2023-12-11T10:17:42.038Z,54.95
2023-12-11T10:18:41.009Z,52.68
2023-12-11T10:19:41.205Z,52.83
2023-12-11T10:20:41.588Z,56.28
2023-12-11T10:21:41.207Z,55.66
2023-12-11T10:22:41.154Z,55.74
2023-12-11T10:23:41.520Z,56.60
2023-12-11T10:24:42.170Z,55.71
2023-12-11T10:25:41.268Z,54.84
2023-12-11T10:26:41.331Z,53.91
2023-12-11T10:27:41.412Z,53.78
2023-12-11T10:28:41.438Z,54.57
2023-12-11T10:29:41.938Z,52.82
2023-12-11T10:30:41.513Z,54.37
2023-12-11T10:31:41.597Z,54.93
2023-12-11T10:32:41.657Z,55.34
2023-12-11T10:33:42.515Z,55.73
2023-12-11T10:34:41.816Z,55.38
2023-12-11T10:35:42.229Z,57.52
2023-12-11T10:36:41.780Z,63.89
2023-12-11T10:37:41.817Z,67.98
2023-12-11T10:38:41.840Z,65.48
2023-12-11T10:39:41.896Z,59.71
2023-12-11T10:40:42.154Z,61.94
2023-12-11T10:41:41.829Z,52.61
2023-12-11T10:42:41.949Z,52.24
2023-12-11T10:43:55.752Z,57.43
2023-12-11T10:44:50.136Z,57.44
2023-12-11T10:45:43.108Z,50.38
2023-12-11T10:46:41.912Z,57.67
2023-12-11T10:47:41.912Z,49.97
2023-12-11T10:48:42.059Z,50.45
2023-12-11T10:49:42.057Z,52.64
2023-12-11T10:50:42.176Z,53.09
2023-12-11T10:51:41.921Z,51.54
2023-12-11T10:52:42.173Z,55.89
2023-12-11T10:53:41.890Z,54.55
2023-12-11T10:54:42.247Z,54.94
2023-12-11T10:55:42.107Z,53.46
2023-12-11T10:56:42.009Z,53.24
2023-12-11T10:57:42.140Z,50.45
2023-12-11T10:58:41.902Z,51.95
2023-12-11T10:59:42.067Z,52.66
2023-12-11T11:00:42.040Z,52.97
2023-12-11T11:01:42.119Z,53.32
2023-12-11T11:02:41.947Z,54.44
2023-12-11T11:03:41.956Z,60.34
2023-12-11T11:04:41.920Z,67.27
2023-12-11T11:05:41.998Z,75.85
2023-12-11T11:06:42.137Z,86.14
2023-12-11T11:07:41.916Z,98.19
2023-12-11T11:08:41.980Z,103.65
2023-12-11T11:09:42.682Z,106.98
2023-12-11T11:10:41.927Z,111.15
2023-12-11T11:11:42.074Z,114.89
2023-12-11T11:12:41.989Z,118.69
2023-12-11T11:13:41.956Z,126.34
2023-12-11T11:14:42.012Z,130.67
2023-12-11T11:15:42.155Z,133.40
2023-12-11T11:16:42.032Z,138.84
2023-12-11T11:17:42.149Z,138.76
2023-12-11T11:18:42.240Z,138.84
2023-12-11T11:19:42.305Z,137.94
2023-12-11T11:20:42.621Z,139.38
2023-12-11T11:21:42.244Z,137.91
2023-12-11T11:22:42.505Z,136.63
2023-12-11T11:23:42.357Z,134.77
2023-12-11T11:24:42.307Z,134.78
2023-12-11T11:25:42.678Z,128.41
2023-12-11T11:26:42.359Z,129.07
2023-12-11T11:27:42.580Z,125.01
2023-12-11T11:28:43.154Z,121.09
2023-12-11T11:29:42.856Z,115.67
2023-12-11T11:30:43.246Z,106.42
2023-12-11T11:31:42.829Z,97.67
2023-12-11T11:32:42.779Z,96.21
2023-12-11T11:33:44.427Z,89.46
2023-12-11T11:34:43.190Z,86.60
2023-12-11T11:35:43.080Z,86.21
2023-12-11T11:36:43.046Z,83.75
2023-12-11T11:37:43.050Z,83.04
2023-12-11T11:38:43.094Z,81.41
2023-12-11T11:39:46.950Z,78.50
2023-12-11T11:40:44.683Z,78.59
2023-12-11T11:41:43.618Z,78.91
2023-12-11T11:42:43.259Z,79.06
2023-12-11T11:43:43.147Z,81.73
2023-12-11T11:44:43.077Z,81.37
2023-12-11T11:45:43.625Z,83.39
2023-12-11T11:46:43.100Z,83.67
2023-12-11T11:47:43.358Z,83.51
2023-12-11T11:48:43.363Z,85.24
2023-12-11T11:49:43.291Z,84.99
2023-12-11T11:50:43.182Z,88.25
2023-12-11T11:51:43.124Z,87.50
2023-12-11T11:52:43.936Z,85.60
2023-12-11T11:53:43.156Z,88.64
2023-12-11T11:54:43.701Z,88.29
2023-12-11T11:55:43.370Z,87.58
2023-12-11T11:56:43.088Z,86.81
2023-12-11T11:57:43.661Z,88.28
2023-12-11T11:58:43.111Z,88.91
2023-12-11T11:59:43.141Z,87.87
2023-12-11T12:00:43.413Z,88.54
2023-12-11T12:01:43.233Z,90.13
2023-12-11T12:02:44.107Z,90.43
2023-12-11T12:03:43.394Z,89.13
2023-12-11T12:04:43.170Z,90.18
2023-12-11T12:05:43.197Z,87.10
2023-12-11T12:06:43.277Z,89.22
2023-12-11T12:07:43.605Z,89.28
2023-12-11T12:08:43.354Z,91.81
2023-12-11T12:09:43.675Z,90.47
2023-12-11T12:10:45.695Z,89.57
2023-12-11T12:11:43.603Z,88.84
2023-12-11T12:12:44.127Z,89.95
2023-12-11T12:13:43.745Z,90.13
2023-12-11T12:14:43.818Z,88.73
2023-12-11T12:15:43.904Z,89.69
2023-12-11T12:16:43.922Z,92.89
2023-12-11T12:17:44.205Z,95.02
2023-12-11T12:18:43.987Z,95.83
2023-12-11T12:19:43.963Z,94.17
2023-12-11T12:20:44.028Z,97.26
2023-12-11T12:21:44.100Z,93.13
2023-12-11T12:22:45.914Z,100.81
2023-12-11T12:23:44.116Z,97.12
2023-12-11T12:24:44.178Z,97.71
2023-12-11T12:25:44.097Z,94.87
2023-12-11T12:26:44.092Z,93.03
2023-12-11T12:27:44.146Z,93.06
2023-12-11T12:28:44.116Z,92.71
2023-12-11T12:29:44.099Z,91.77
2023-12-11T12:30:44.174Z,91.23
2023-12-11T12:31:44.127Z,91.11
2023-12-11T12:32:44.154Z,90.31
2023-12-11T12:33:44.241Z,88.76
2023-12-11T12:34:44.177Z,86.47
2023-12-11T12:35:44.127Z,85.35
2023-12-11T12:36:44.142Z,84.58
2023-12-11T12:37:44.098Z,86.41
2023-12-11T12:38:44.137Z,83.63
2023-12-11T12:39:44.163Z,85.62
2023-12-11T12:40:44.103Z,84.45
2023-12-11T12:41:44.127Z,82.62
2023-12-11T12:42:44.158Z,85.14
2023-12-11T12:43:44.136Z,86.50
2023-12-11T12:44:44.162Z,88.84
2023-12-11T12:45:44.213Z,87.43
2023-12-11T12:46:44.175Z,85.84
2023-12-11T12:47:44.178Z,85.52
2023-12-11T12:48:44.238Z,84.75
2023-12-11T12:49:44.184Z,83.85
2023-12-11T12:50:44.162Z,82.13
2023-12-11T12:51:44.171Z,81.17
2023-12-11T12:52:44.160Z,83.11
2023-12-11T12:53:44.168Z,80.73